Time;durP1;ratioP1;P1;durP2;ratioP2;P2;SDS_P1;SDS_P2;PMS_P1;PMS_P2;Temp;Humidity;BMP_temperature;BMP_pressure;BME280_temperature;BME280_humidity;BME280_pressure;Samples;Min_cycle;Max_cycle;Signal;HPM_P1;HPM_P2
2021/03/24 00:01:23;;;;;;;11.05;6.40;;;4.10;99.90;;;;;;5052925;28;20078;-76
2021/03/24 00:03:49;;;;;;;11.07;6.68;;;4.10;99.90;;;;;;5049402;28;20587;-75
2021/03/24 00:06:15;;;;;;;8.77;5.45;;;4.10;99.90;;;;;;5034138;28;20189;-78
2021/03/24 00:08:41;;;;;;;10.25;6.60;;;4.10;99.90;;;;;;5011349;28;20106;-78
2021/03/24 00:11:07;;;;;;;13.50;7.32;;;4.30;99.90;;;;;;5030278;28;20547;-77
2021/03/24 00:13:33;;;;;;;8.65;5.70;;;4.40;99.90;;;;;;5029028;28;20086;-76
2021/03/24 00:15:59;;;;;;;11.45;6.15;;;4.30;99.90;;;;;;5029657;28;20208;-77
2021/03/24 00:18:25;;;;;;;9.38;6.65;;;4.20;99.90;;;;;;5014997;28;20113;-76
2021/03/24 00:20:51;;;;;;;11.32;6.22;;;4.30;99.90;;;;;;5029257;28;20082;-78
2021/03/24 00:23:17;;;;;;;10.02;6.40;;;4.30;99.90;;;;;;5014015;28;20142;-77
2021/03/24 00:25:42;;;;;;;10.23;5.88;;;4.20;99.90;;;;;;5029165;28;20161;-78
2021/03/24 00:28:10;;;;;;;9.43;6.35;;;4.20;99.90;;;;;;5018715;28;20747;-77
2021/03/24 00:30:42;;;;;;;13.45;7.63;;;4.30;99.90;;;;;;5014342;28;20081;-78
2021/03/24 00:33:09;;;;;;;10.55;6.65;;;4.30;99.90;;;;;;5015736;28;20078;-77
2021/03/24 00:35:35;;;;;;;8.95;6.30;;;4.30;99.90;;;;;;5027844;28;20124;-78
2021/03/24 00:38:01;;;;;;;11.32;7.15;;;4.20;99.90;;;;;;5031604;28;20095;-78
2021/03/24 00:40:33;;;;;;;12.75;7.82;;;4.20;99.90;;;;;;5037107;28;20100;-76
2021/03/24 00:42:59;;;;;;;9.90;6.35;;;4.10;99.90;;;;;;5017983;28;20086;-79
2021/03/24 00:45:25;;;;;;;11.55;6.15;;;4.10;99.90;;;;;;5018672;28;20121;-78
2021/03/24 00:47:51;;;;;;;12.18;7.05;;;4.10;99.90;;;;;;5023697;28;20136;-77
2021/03/24 00:50:21;;;;;;;11.40;7.82;;;4.10;99.90;;;;;;5022073;28;20085;-78
2021/03/24 00:52:47;;;;;;;9.63;6.40;;;4.40;99.90;;;;;;5017017;28;20796;-77
2021/03/24 00:55:15;;;;;;;11.63;6.38;;;4.30;99.90;;;;;;5018610;28;20085;-78
2021/03/24 00:57:40;;;;;;;11.20;7.20;;;4.20;99.90;;;;;;5016212;28;20109;-78
2021/03/24 01:00:10;;;;;;;10.60;6.28;;;4.20;99.90;;;;;;5018156;28;20490;-77
2021/03/24 01:02:36;;;;;;;9.93;6.75;;;4.10;99.90;;;;;;5017756;28;20086;-78
2021/03/24 01:05:06;;;;;;;10.88;6.13;;;4.00;99.90;;;;;;5029957;28;20551;-78
2021/03/24 01:07:32;;;;;;;10.20;5.85;;;4.10;99.90;;;;;;5018777;28;20565;-76
2021/03/24 01:09:58;;;;;;;11.02;6.13;;;4.00;99.90;;;;;;5018656;28;20078;-76
2021/03/24 01:12:23;;;;;;;11.30;7.00;;;4.00;99.90;;;;;;5017265;28;20093;-78
2021/03/24 01:14:49;;;;;;;9.93;5.93;;;3.90;99.90;;;;;;5015229;28;20079;-78
2021/03/24 01:17:14;;;;;;;10.55;5.70;;;3.80;99.90;;;;;;5025494;28;20100;-76
2021/03/24 01:19:40;;;;;;;10.18;6.43;;;3.80;99.90;;;;;;5014677;28;20090;-78
2021/03/24 01:22:06;;;;;;;11.98;6.95;;;3.90;99.90;;;;;;5015502;28;20086;-77
2021/03/24 01:24:31;;;;;;;11.43;6.60;;;3.80;99.90;;;;;;5019864;28;20165;-78
2021/03/24 01:26:57;;;;;;;9.57;6.15;;;4.00;99.90;;;;;;5019881;28;20096;-77
2021/03/24 01:29:22;;;;;;;12.05;7.07;;;4.10;99.90;;;;;;5032589;28;20098;-77
2021/03/24 01:31:48;;;;;;;10.88;6.03;;;4.20;99.90;;;;;;5018633;28;20583;-77
2021/03/24 01:34:14;;;;;;;11.43;6.20;;;4.10;99.90;;;;;;5019416;28;20082;-78
2021/03/24 01:36:39;;;;;;;10.65;6.43;;;4.20;99.90;;;;;;5023934;28;20126;-77
2021/03/24 01:39:05;;;;;;;10.18;6.53;;;4.20;99.90;;;;;;5024798;28;20090;-76
2021/03/24 01:41:31;;;;;;;9.88;5.65;;;4.20;99.90;;;;;;5015064;28;20117;-78
2021/03/24 01:43:56;;;;;;;13.02;6.85;;;4.20;99.90;;;;;;5016133;28;20201;-78
2021/03/24 01:46:36;;;;;;;9.93;6.30;;;4.10;99.90;;;;;;5012895;28;20106;-77
2021/03/24 01:49:10;;;;;;;11.73;6.45;;;3.90;99.90;;;;;;5020640;28;20170;-79
2021/03/24 01:51:48;;;;;;;8.32;5.43;;;3.70;99.90;;;;;;5014408;28;20447;-78
2021/03/24 01:54:20;;;;;;;11.65;7.05;;;3.70;99.90;;;;;;5028436;28;20082;-77
2021/03/24 01:56:47;;;;;;;8.45;5.70;;;3.70;99.90;;;;;;5017885;28;20113;-77
2021/03/24 01:59:14;;;;;;;9.18;6.30;;;3.60;99.90;;;;;;5018548;28;20128;-78
2021/03/24 02:01:41;;;;;;;9.63;6.28;;;3.60;99.90;;;;;;5021785;28;20076;-77
2021/03/24 02:04:06;;;;;;;9.68;5.82;;;3.70;99.90;;;;;;5024132;28;20078;-78
2021/03/24 02:06:41;;;;;;;9.10;5.97;;;3.70;99.90;;;;;;5017978;28;20129;-78
2021/03/24 02:09:20;;;;;;;10.77;6.28;;;3.80;99.90;;;;;;5027752;28;20080;-78
2021/03/24 02:12:10;;;;;;;9.52;6.35;;;3.60;99.90;;;;;;5033629;28;20141;-77
2021/03/24 02:14:44;;;;;;;8.65;5.90;;;3.50;99.90;;;;;;5017532;28;20726;-77
2021/03/24 02:17:11;;;;;;;8.68;5.18;;;3.40;99.90;;;;;;5030429;28;20093;-78
2021/03/24 02:19:56;;;;;;;9.77;6.53;;;3.40;99.90;;;;;;5022785;28;20082;-78
2021/03/24 02:22:24;;;;;;;9.50;6.07;;;3.40;99.90;;;;;;5032109;28;20132;-78
2021/03/24 02:25:10;;;;;;;9.07;4.97;;;3.30;99.90;;;;;;5034118;28;20094;-78
2021/03/24 02:27:39;;;;;;;11.57;6.78;;;3.30;99.90;;;;;;5012728;28;20109;-78
2021/03/24 02:30:23;;;;;;;9.50;6.43;;;3.30;99.90;;;;;;5017816;28;20524;-78
2021/03/24 02:32:55;;;;;;;10.30;5.70;;;3.20;99.90;;;;;;5015130;28;20588;-78
2021/03/24 02:35:28;;;;;;;9.55;5.32;;;3.20;99.90;;;;;;5027487;28;20081;-78
2021/03/24 02:37:57;;;;;;;9.95;5.47;;;3.00;99.90;;;;;;5033767;28;20157;-77
2021/03/24 02:40:23;;;;;;;8.70;5.35;;;3.10;99.90;;;;;;5024856;28;20078;-78
2021/03/24 02:42:50;;;;;;;10.20;5.72;;;3.00;99.90;;;;;;5016569;28;20140;-78
2021/03/24 02:45:22;;;;;;;8.68;6.15;;;3.00;99.90;;;;;;5010299;28;20124;-78
2021/03/24 02:47:50;;;;;;;12.35;6.25;;;2.90;99.90;;;;;;5011403;28;20095;-76
2021/03/24 02:50:17;;;;;;;9.95;5.93;;;2.90;99.90;;;;;;5021438;28;20165;-78
2021/03/24 02:52:42;;;;;;;9.32;5.65;;;3.10;99.90;;;;;;5015194;28;20079;-78
2021/03/24 02:55:13;;;;;;;8.63;5.82;;;3.00;99.90;;;;;;5014815;28;20086;-78
2021/03/24 02:57:38;;;;;;;11.10;6.20;;;3.10;99.90;;;;;;5023175;28;20130;-80
2021/03/24 03:00:12;;;;;;;8.85;5.70;;;3.10;99.90;;;;;;5029821;28;20106;-78
2021/03/24 03:02:41;;;;;;;10.80;5.50;;;2.90;99.90;;;;;;5018781;28;20081;-78
2021/03/24 03:05:12;;;;;;;12.82;5.95;;;2.80;99.90;;;;;;5009634;28;20729;-77
2021/03/24 03:07:44;;;;;;;9.40;5.82;;;2.90;99.90;;;;;;5008948;28;20104;-77
2021/03/24 03:10:39;;;;;;;8.50;5.55;;;3.10;99.90;;;;;;5012506;28;20102;-78
2021/03/24 03:13:25;;;;;;;9.55;5.80;;;3.10;99.90;;;;;;4993692;28;20085;-78
2021/03/24 03:16:04;;;;;;;10.48;6.10;;;3.20;99.90;;;;;;5028421;28;20074;-78
2021/03/24 03:18:36;;;;;;;9.82;6.22;;;3.10;99.90;;;;;;5027894;28;20432;-78
2021/03/24 03:21:13;;;;;;;12.65;7.28;;;3.20;99.90;;;;;;5013001;28;20443;-78
2021/03/24 03:23:39;;;;;;;8.93;6.30;;;3.20;99.90;;;;;;5017404;28;20074;-77
2021/03/24 03:26:17;;;;;;;8.32;6.15;;;3.00;99.90;;;;;;5028092;28;20112;-78
2021/03/24 03:28:45;;;;;;;9.05;5.45;;;2.90;99.90;;;;;;5012674;28;20086;-77
2021/03/24 03:31:14;;;;;;;9.55;5.32;;;2.90;99.90;;;;;;5012504;28;20070;-80
2021/03/24 03:33:44;;;;;;;10.55;5.95;;;2.90;99.90;;;;;;5011763;28;20078;-77
2021/03/24 03:36:12;;;;;;;10.57;6.13;;;3.00;99.90;;;;;;5012990;28;20079;-78
2021/03/24 03:38:39;;;;;;;9.20;6.00;;;2.80;99.90;;;;;;5025746;28;20074;-78
2021/03/24 03:41:07;;;;;;;8.02;5.70;;;2.80;99.90;;;;;;5020997;28;20174;-78
2021/03/24 03:43:34;;;;;;;10.15;5.10;;;2.80;99.90;;;;;;5033458;28;20304;-81
2021/03/24 03:46:02;;;;;;;10.07;5.72;;;2.70;99.90;;;;;;5036351;28;20133;-80
2021/03/24 03:48:27;;;;;;;9.52;5.97;;;2.60;99.90;;;;;;5035362;28;20079;-78
2021/03/24 03:51:02;;;;;;;7.85;4.75;;;2.70;99.90;;;;;;5014528;28;20085;-78
2021/03/24 03:53:47;;;;;;;9.63;6.13;;;2.80;99.90;;;;;;5026039;28;20136;-78
2021/03/24 03:56:18;;;;;;;10.93;5.78;;;2.70;99.90;;;;;;5013588;28;20074;-78
2021/03/24 03:59:08;;;;;;;12.93;6.15;;;2.80;99.90;;;;;;5014118;28;20208;-79
2021/03/24 04:01:37;;;;;;;10.05;6.00;;;2.80;99.90;;;;;;5014947;28;20221;-78
2021/03/24 04:04:10;;;;;;;10.77;6.93;;;2.80;99.90;;;;;;5010859;28;20075;-77
2021/03/24 04:06:39;;;;;;;8.10;5.45;;;2.70;99.90;;;;;;5015734;28;20106;-79
2021/03/24 04:09:08;;;;;;;10.43;5.80;;;2.80;99.90;;;;;;5008999;28;20153;-78
2021/03/24 04:11:41;;;;;;;12.93;6.05;;;2.80;99.90;;;;;;5013309;28;20086;-79
2021/03/24 04:14:08;;;;;;;9.52;5.47;;;2.80;99.90;;;;;;5015937;28;20092;-78
2021/03/24 04:16:37;;;;;;;9.43;6.50;;;2.90;99.90;;;;;;5025573;28;20105;-77
2021/03/24 04:19:06;;;;;;;10.82;6.55;;;3.00;99.90;;;;;;5024203;28;20113;-79
2021/03/24 04:21:35;;;;;;;9.77;5.88;;;2.90;99.90;;;;;;5027606;28;20077;-79
2021/03/24 04:24:27;;;;;;;11.05;6.30;;;2.80;99.90;;;;;;5022471;28;20070;-79
2021/03/24 04:26:57;;;;;;;11.18;5.82;;;2.70;99.90;;;;;;5017876;28;20177;-78
2021/03/24 04:29:46;;;;;;;8.35;5.20;;;2.60;99.90;;;;;;5012254;28;20096;-78
2021/03/24 04:32:12;;;;;;;9.70;5.72;;;2.50;99.90;;;;;;5027843;28;20074;-78
2021/03/24 04:34:39;;;;;;;9.10;6.20;;;2.40;99.90;;;;;;5021726;28;20560;-78
2021/03/24 04:37:06;;;;;;;11.25;5.57;;;2.40;99.90;;;;;;5017739;28;20096;-78
2021/03/24 04:39:48;;;;;;;11.38;6.60;;;2.30;99.90;;;;;;5024237;28;20078;-78
2021/03/24 04:42:28;;;;;;;12.85;6.70;;;2.00;99.90;;;;;;5013341;28;20078;-78
2021/03/24 04:44:56;;;;;;;14.02;6.88;;;2.00;99.90;;;;;;5013833;28;20153;-78
2021/03/24 04:47:30;;;;;;;14.73;6.35;;;2.00;99.90;;;;;;5023153;28;20098;-79
2021/03/24 04:50:06;;;;;;;9.27;6.45;;;2.10;99.90;;;;;;5018635;28;20066;-78
2021/03/24 04:52:34;;;;;;;11.95;6.18;;;2.10;99.90;;;;;;5017713;28;20089;-77
2021/03/24 04:55:08;;;;;;;12.27;6.35;;;1.90;99.90;;;;;;5018544;28;20086;-78
2021/03/24 04:57:35;;;;;;;11.45;6.68;;;1.80;99.90;;;;;;5020651;28;20469;-78
2021/03/24 05:00:12;;;;;;;9.52;5.75;;;1.80;99.90;;;;;;5029005;28;20082;-78
2021/03/24 05:02:41;;;;;;;12.00;7.00;;;1.90;99.90;;;;;;5023291;28;20136;-79
2021/03/24 05:05:20;;;;;;;8.77;5.25;;;1.90;99.90;;;;;;5014680;28;20078;-76
2021/03/24 05:07:54;;;;;;;8.93;5.55;;;1.80;99.90;;;;;;5014050;28;20106;-77
2021/03/24 05:10:24;;;;;;;12.18;6.13;;;1.60;99.90;;;;;;5012409;28;20089;-77
2021/03/24 05:12:59;;;;;;;11.27;5.90;;;1.80;99.90;;;;;;5012542;28;20106;-78
2021/03/24 05:15:26;;;;;;;10.30;6.55;;;2.00;99.90;;;;;;5019607;28;20097;-78
2021/03/24 05:17:54;;;;;;;12.10;5.75;;;1.90;99.90;;;;;;5024580;28;20098;-77
2021/03/24 05:20:37;;;;;;;9.20;5.82;;;1.70;99.90;;;;;;5030214;28;20160;-77
2021/03/24 05:23:09;;;;;;;9.68;6.10;;;1.80;99.90;;;;;;5015084;28;20164;-78
2021/03/24 05:25:46;;;;;;;9.98;5.63;;;1.90;99.90;;;;;;5013718;28;20165;-79
2021/03/24 05:28:30;;;;;;;10.82;6.45;;;1.70;99.90;;;;;;5028562;28;20113;-78
2021/03/24 05:31:06;;;;;;;11.25;5.85;;;1.50;99.90;;;;;;5026958;28;20076;-78
2021/03/24 05:33:38;;;;;;;8.73;5.50;;;1.50;99.90;;;;;;5023592;28;20082;-76
2021/03/24 05:36:09;;;;;;;10.68;5.20;;;1.70;99.90;;;;;;5009813;28;20079;-77
2021/03/24 05:38:38;;;;;;;11.35;5.53;;;1.90;99.90;;;;;;5011208;28;20066;-77
2021/03/24 05:41:26;;;;;;;11.68;6.50;;;1.90;99.90;;;;;;5018031;28;20124;-77
2021/03/24 05:44:24;;;;;;;10.63;5.88;;;1.80;99.90;;;;;;5018635;28;20074;-77
2021/03/24 05:47:12;;;;;;;11.80;6.80;;;1.70;99.90;;;;;;5025971;28;20129;-79
2021/03/24 05:49:52;;;;;;;8.40;5.43;;;1.90;99.90;;;;;;5024724;28;20210;-79
2021/03/24 05:52:49;;;;;;;11.48;7.03;;;1.70;99.90;;;;;;5013369;28;20097;-78
2021/03/24 05:55:43;;;;;;;10.50;6.05;;;1.50;99.90;;;;;;5017373;28;20560;-77
2021/03/24 05:58:40;;;;;;;12.63;7.00;;;1.60;99.90;;;;;;5022386;28;20094;-82
2021/03/24 06:01:33;;;;;;;12.93;6.65;;;1.90;99.90;;;;;;5013253;28;20070;-77
2021/03/24 06:04:33;;;;;;;13.80;7.22;;;1.70;99.90;;;;;;5017214;28;20455;-77
2021/03/24 06:07:23;;;;;;;11.95;7.43;;;1.50;99.90;;;;;;5013957;28;20122;-75
2021/03/24 06:10:04;;;;;;;13.20;7.97;;;1.50;99.90;;;;;;5027771;28;20077;-78
2021/03/24 06:13:07;;;;;;;14.10;7.97;;;1.70;99.90;;;;;;5026653;28;20497;-77
2021/03/24 06:15:54;;;;;;;13.40;6.47;;;1.90;99.90;;;;;;5017551;28;20080;-77
2021/03/24 06:18:23;;;;;;;15.85;8.77;;;1.90;99.90;;;;;;5010594;28;20094;-78
2021/03/24 06:21:16;;;;;;;12.75;6.63;;;1.80;99.90;;;;;;5028077;28;20078;-80
2021/03/24 06:24:09;;;;;;;14.77;7.43;;;1.80;99.90;;;;;;5024188;28;20150;-77
2021/03/24 06:26:55;;;;;;;13.10;7.85;;;1.90;99.90;;;;;;5019052;28;20617;-79
2021/03/24 06:29:36;;;;;;;14.98;8.68;;;2.00;99.90;;;;;;5023471;28;20074;-80
2021/03/24 06:32:20;;;;;;;12.45;7.70;;;2.20;99.90;;;;;;5013893;28;20101;-78
2021/03/24 06:34:53;;;;;;;14.65;6.95;;;2.30;99.90;;;;;;5020507;28;20682;-76
2021/03/24 06:37:46;;;;;;;15.45;8.88;;;2.70;99.90;;;;;;5026321;28;20113;-77
2021/03/24 06:40:42;;;;;;;14.40;8.80;;;2.80;99.90;;;;;;5015107;28;20098;-77
2021/03/24 06:43:50;;;;;;;12.90;7.95;;;2.70;99.90;;;;;;5017516;28;20082;-76
2021/03/24 06:46:34;;;;;;;15.23;8.15;;;2.90;99.90;;;;;;5011197;28;20078;-77
2021/03/24 06:49:16;;;;;;;14.90;8.10;;;2.80;99.90;;;;;;5024133;28;20066;-77
2021/03/24 06:52:19;;;;;;;13.27;7.85;;;3.00;99.90;;;;;;5021955;28;20070;-77
2021/03/24 06:55:03;;;;;;;14.27;8.10;;;3.10;99.90;;;;;;5014579;28;20078;-79
2021/03/24 06:57:44;;;;;;;19.77;8.80;;;3.10;99.90;;;;;;5013781;28;20090;-79
2021/03/24 07:00:26;;;;;;;15.52;8.32;;;3.00;99.90;;;;;;5019468;28;20076;-77
2021/03/24 07:03:07;;;;;;;16.08;9.02;;;3.10;99.90;;;;;;5013803;28;20089;-77
2021/03/24 07:05:41;;;;;;;16.73;9.77;;;3.20;99.90;;;;;;5020404;28;20078;-78
2021/03/24 07:08:34;;;;;;;20.65;11.57;;;3.30;99.90;;;;;;5014715;28;20100;-78
2021/03/24 07:11:21;;;;;;;17.35;9.88;;;3.50;99.90;;;;;;5030082;28;20078;-79
2021/03/24 07:13:47;;;;;;;19.35;9.70;;;3.50;99.90;;;;;;5014247;28;20101;-78
2021/03/24 07:16:34;;;;;;;21.90;11.15;;;3.50;99.90;;;;;;5029500;28;20085;-76
2021/03/24 07:19:18;;;;;;;16.60;9.63;;;3.60;99.90;;;;;;5020288;28;20543;-78
2021/03/24 07:22:07;;;;;;;22.42;10.35;;;3.90;99.90;;;;;;5027923;28;20650;-80
2021/03/24 07:24:58;;;;;;;18.05;10.55;;;3.90;99.90;;;;;;5025007;28;20190;-81
2021/03/24 07:27:34;;;;;;;18.50;10.45;;;3.90;99.90;;;;;;5045720;28;20169;-83
2021/03/24 07:30:02;;;;;;;20.08;9.95;;;3.90;99.90;;;;;;5033178;28;20078;-77
2021/03/24 07:32:37;;;;;;;18.35;10.00;;;4.20;99.90;;;;;;5022525;28;20074;-76
2021/03/24 07:35:20;;;;;;;16.55;9.50;;;4.30;99.90;;;;;;5021811;28;20487;-79
2021/03/24 07:38:33;;;;;;;18.13;10.18;;;4.40;99.90;;;;;;5033053;28;20094;-80
2021/03/24 07:41:30;;;;;;;15.40;8.90;;;4.50;99.90;;;;;;4980336;28;20516;-79
2021/03/24 07:44:43;;;;;;;16.73;8.88;;;4.80;99.90;;;;;;4988332;28;20157;-79
2021/03/24 07:47:29;;;;;;;17.77;9.88;;;4.90;99.90;;;;;;4952479;28;20148;-77
2021/03/24 07:50:05;;;;;;;19.38;9.15;;;4.60;99.90;;;;;;5013888;28;20082;-78
2021/03/24 07:52:38;;;;;;;19.35;10.80;;;4.60;99.90;;;;;;5023560;28;20088;-79
2021/03/24 07:55:06;;;;;;;16.30;9.23;;;4.60;99.90;;;;;;5022745;28;20723;-80
2021/03/24 07:57:58;;;;;;;15.05;8.50;;;4.90;99.90;;;;;;5023193;28;20172;-77
2021/03/24 08:00:41;;;;;;;18.27;8.65;;;5.10;99.90;;;;;;5020618;28;20188;-78
2021/03/24 08:03:28;;;;;;;15.55;9.00;;;5.40;99.90;;;;;;5019153;28;20073;-78
2021/03/24 08:06:09;;;;;;;17.30;8.35;;;5.50;99.90;;;;;;5026701;28;20106;-77
2021/03/24 08:08:37;;;;;;;15.77;9.25;;;5.40;99.90;;;;;;5013386;28;20082;-77
2021/03/24 08:11:16;;;;;;;15.40;8.95;;;5.60;99.90;;;;;;5023513;28;20566;-77
2021/03/24 08:14:00;;;;;;;15.15;8.35;;;5.60;99.90;;;;;;5015079;28;20078;-78
2021/03/24 08:16:54;;;;;;;15.43;8.70;;;5.80;99.90;;;;;;5017296;28;20090;-77
2021/03/24 08:19:22;;;;;;;16.90;8.73;;;6.10;99.90;;;;;;5020078;28;20074;-76
2021/03/24 08:22:10;;;;;;;19.08;9.98;;;6.00;99.90;;;;;;5021349;28;20085;-77
2021/03/24 08:24:35;;;;;;;14.75;8.05;;;5.90;99.90;;;;;;5017232;28;20088;-77
2021/03/24 08:27:11;;;;;;;13.73;7.03;;;6.00;99.90;;;;;;5011489;28;20102;-77
2021/03/24 08:29:47;;;;;;;15.60;8.30;;;6.20;99.90;;;;;;5020755;28;20070;-78
2021/03/24 08:32:12;;;;;;;13.48;7.78;;;5.80;99.90;;;;;;5024008;28;20084;-78
2021/03/24 08:35:16;;;;;;;14.23;7.88;;;6.10;99.90;;;;;;5024745;28;20169;-79
2021/03/24 08:38:18;;;;;;;15.05;8.85;;;6.40;99.90;;;;;;5019565;28;20102;-79
2021/03/24 08:41:03;;;;;;;15.40;8.43;;;6.50;99.90;;;;;;5024601;28;20085;-79
2021/03/24 08:43:58;;;;;;;16.60;10.13;;;6.60;99.90;;;;;;5023886;28;20089;-76
2021/03/24 08:46:38;;;;;;;16.17;8.63;;;6.10;99.90;;;;;;5030430;28;20187;-77
2021/03/24 08:49:13;;;;;;;15.25;8.93;;;6.30;99.90;;;;;;5019576;28;20081;-78
2021/03/24 08:51:51;;;;;;;13.52;8.88;;;6.50;99.90;;;;;;5032787;28;20073;-78
2021/03/24 08:54:34;;;;;;;15.57;9.27;;;6.60;99.90;;;;;;5025952;28;20157;-78
2021/03/24 08:57:18;;;;;;;15.95;8.95;;;6.50;99.90;;;;;;5020944;28;20140;-77
2021/03/24 08:59:51;;;;;;;15.93;8.25;;;6.70;99.90;;;;;;5018096;28;20734;-77
2021/03/24 09:02:27;;;;;;;16.60;9.05;;;6.80;99.90;;;;;;5017516;28;20081;-80
2021/03/24 09:04:59;;;;;;;19.02;9.13;;;6.90;99.90;;;;;;5017468;28;20109;-79
2021/03/24 09:07:49;;;;;;;14.40;8.50;;;6.90;99.90;;;;;;5012177;28;20191;-78
2021/03/24 09:10:35;;;;;;;15.23;9.02;;;7.00;99.90;;;;;;5015319;28;20074;-80
2021/03/24 09:13:10;;;;;;;13.40;8.35;;;7.10;99.90;;;;;;5014809;28;20496;-80
2021/03/24 09:15:41;;;;;;;17.83;9.27;;;7.00;99.90;;;;;;5025083;28;20970;-76
2021/03/24 09:18:17;;;;;;;17.40;8.80;;;6.80;99.90;;;;;;5037167;28;20172;-78
2021/03/24 09:21:07;;;;;;;18.15;8.60;;;7.20;99.90;;;;;;5028645;28;20078;-78
2021/03/24 09:23:51;;;;;;;16.08;8.98;;;7.10;99.90;;;;;;5032185;28;20081;-79
2021/03/24 09:26:32;;;;;;;17.05;9.55;;;7.10;99.90;;;;;;5018245;28;20147;-78
2021/03/24 09:29:12;;;;;;;19.38;10.68;;;7.10;99.90;;;;;;5024197;28;20078;-79
2021/03/24 09:31:40;;;;;;;19.45;9.05;;;7.20;99.90;;;;;;5018943;28;20090;-78
2021/03/24 09:34:54;;;;;;;15.85;9.93;;;6.90;99.90;;;;;;5015418;28;20074;-77
2021/03/24 09:37:35;;;;;;;16.98;9.73;;;7.20;99.90;;;;;;5004556;28;20107;-77
2021/03/24 09:40:08;;;;;;;17.30;10.07;;;7.50;99.90;;;;;;4973400;28;20079;-77
2021/03/24 09:42:48;;;;;;;17.45;9.65;;;7.70;99.90;;;;;;5007118;28;20090;-78
2021/03/24 09:45:14;;;;;;;13.52;8.10;;;7.90;99.90;;;;;;5019037;28;20149;-78
2021/03/24 09:48:03;;;;;;;14.77;8.88;;;7.90;99.90;;;;;;5013960;28;20122;-80
2021/03/24 09:50:35;;;;;;;18.17;9.55;;;8.10;99.90;;;;;;5012266;28;20100;-78
2021/03/24 09:53:03;;;;;;;16.67;9.55;;;8.10;99.90;;;;;;5014971;28;20086;-78
2021/03/24 09:55:46;;;;;;;13.77;8.73;;;8.10;99.90;;;;;;5013818;28;20138;-78
2021/03/24 09:58:21;;;;;;;16.80;9.32;;;8.10;99.90;;;;;;5015185;28;20576;-78
2021/03/24 10:01:02;;;;;;;;;;;8.10;99.90;;;;;;5018422;28;20096;-77
2021/03/24 10:03:51;;;;;;;15.13;7.85;;;8.20;99.90;;;;;;5014858;28;19958;-80
2021/03/24 10:06:35;;;;;;;16.45;8.52;;;8.20;99.90;;;;;;5023305;28;20077;-76
2021/03/24 10:09:17;;;;;;;22.08;9.70;;;8.30;99.90;;;;;;5012562;28;20548;-77
2021/03/24 10:11:57;;;;;;;17.80;8.95;;;7.70;99.90;;;;;;5027525;28;20083;-77
2021/03/24 10:14:38;;;;;;;16.30;9.02;;;7.70;99.90;;;;;;5018879;28;20093;-76
2021/03/24 10:17:12;;;;;;;16.13;9.43;;;7.70;99.90;;;;;;5018913;28;20168;-78
2021/03/24 10:19:45;;;;;;;16.27;9.25;;;8.00;99.90;;;;;;5018559;28;20129;-80
2021/03/24 10:22:17;;;;;;;17.40;9.65;;;8.20;99.90;;;;;;5026960;28;20113;-78
2021/03/24 10:24:46;;;;;;;16.73;9.60;;;8.30;99.90;;;;;;5026158;28;20086;-79
2021/03/24 10:27:18;;;;;;;15.77;9.07;;;8.30;99.90;;;;;;5031959;28;20243;-79
2021/03/24 10:29:50;;;;;;;16.23;9.25;;;8.10;99.90;;;;;;5028751;28;20074;-79
2021/03/24 10:32:35;;;;;;;16.52;9.43;;;8.30;99.90;;;;;;5022537;28;20651;-79
2021/03/24 10:35:47;;;;;;;12.65;8.20;;;8.40;99.90;;;;;;5018700;28;20066;-78
2021/03/24 10:38:41;;;;;;;18.25;9.23;;;8.40;99.90;;;;;;4955930;28;20103;-80
2021/03/24 10:41:24;;;;;;;15.20;8.10;;;8.40;99.90;;;;;;5038895;28;20121;-78
2021/03/24 10:44:29;;;;;;;13.60;8.38;;;8.50;99.90;;;;;;5021545;28;20083;-76
2021/03/24 10:47:19;;;;;;;12.95;7.80;;;8.50;99.90;;;;;;5024826;28;20101;-78
2021/03/24 10:50:20;;;;;;;13.50;7.95;;;8.60;99.90;;;;;;5015479;28;20075;-79
2021/03/24 10:53:04;;;;;;;15.30;7.30;;;8.70;99.90;;;;;;5015287;28;20084;-78
2021/03/24 10:55:31;;;;;;;12.52;7.45;;;8.90;99.90;;;;;;5013761;28;20105;-77
2021/03/24 10:58:18;;;;;;;15.52;8.32;;;8.80;99.90;;;;;;5025308;28;20790;-80
2021/03/24 11:00:50;;;;;;;14.05;8.38;;;8.80;99.90;;;;;;5013460;28;20077;-80
2021/03/24 11:03:25;;;;;;;14.73;8.10;;;8.70;99.90;;;;;;5016580;28;20074;-78
2021/03/24 11:06:00;;;;;;;;;;;8.80;99.90;;;;;;5025497;28;20082;-79
2021/03/24 11:08:55;;;;;;;17.40;7.85;;;8.80;99.90;;;;;;5031004;28;20048;-77
2021/03/24 11:11:41;;;;;;;12.45;8.05;;;9.20;99.90;;;;;;5042477;28;20098;-77
2021/03/24 11:14:17;;;;;;;13.98;7.47;;;9.20;99.90;;;;;;5034212;28;20126;-79
2021/03/24 11:16:51;;;;;;;16.17;8.57;;;9.10;99.90;;;;;;5031688;28;20109;-77
2021/03/24 11:19:28;;;;;;;15.05;8.68;;;9.10;99.90;;;;;;5030947;28;20098;-80
2021/03/24 11:22:26;;;;;;;14.50;7.32;;;9.30;99.90;;;;;;5030367;28;20085;-79
2021/03/24 11:25:03;;;;;;;17.65;9.25;;;9.40;99.90;;;;;;5024767;28;20100;-79
2021/03/24 11:27:47;;;;;;;15.50;9.15;;;9.30;99.90;;;;;;5027960;28;20120;-77
2021/03/24 11:30:25;;;;;;;13.27;7.95;;;9.10;99.90;;;;;;5023240;28;20416;-77
2021/03/24 11:33:31;;;;;;;13.50;8.18;;;9.50;99.90;;;;;;5020132;28;20074;-76
2021/03/24 11:35:59;;;;;;;14.93;8.65;;;9.80;99.90;;;;;;5006975;28;20546;-80
2021/03/24 11:38:46;;;;;;;15.35;7.88;;;9.80;99.90;;;;;;5011431;28;20174;-77
2021/03/24 11:41:23;;;;;;;13.90;8.68;;;9.70;99.90;;;;;;5021914;28;20439;-80
2021/03/24 11:44:04;;;;;;;14.13;8.15;;;9.30;99.90;;;;;;5011366;28;20078;-79
2021/03/24 11:46:53;;;;;;;11.55;7.57;;;9.50;99.90;;;;;;5011014;28;20097;-78
2021/03/24 11:49:40;;;;;;;13.90;7.40;;;9.50;99.90;;;;;;5015863;28;20070;-79
2021/03/24 11:52:21;;;;;;;15.70;7.78;;;10.00;99.90;;;;;;5016978;28;20078;-80
2021/03/24 11:54:46;;;;;;;12.77;7.47;;;9.80;99.90;;;;;;5023106;28;20070;-78
2021/03/24 11:57:28;;;;;;;13.10;8.18;;;9.70;99.50;;;;;;5019629;28;20100;-79
2021/03/24 11:59:56;;;;;;;15.07;7.22;;;9.80;99.90;;;;;;5018241;28;20078;-79
2021/03/24 12:03:00;;;;;;;13.73;7.15;;;9.90;99.90;;;;;;5027916;28;20074;-81
2021/03/24 12:05:39;;;;;;;12.93;7.55;;;9.80;99.90;;;;;;5020724;28;20082;-78
2021/03/24 12:08:34;;;;;;;15.23;7.47;;;9.90;99.90;;;;;;5014714;28;20830;-79
2021/03/24 12:11:11;;;;;;;14.13;7.85;;;10.10;99.90;;;;;;5012338;28;20093;-79
2021/03/24 12:13:38;;;;;;;12.15;7.07;;;9.70;98.90;;;;;;5013575;28;20077;-79
2021/03/24 12:16:13;;;;;;;10.85;6.75;;;9.80;99.90;;;;;;5014220;28;20089;-79
2021/03/24 12:18:54;;;;;;;14.10;7.35;;;10.20;99.90;;;;;;5023923;28;20070;-78
2021/03/24 12:21:33;;;;;;;10.10;6.95;;;10.40;99.90;;;;;;5028391;28;20080;-78
2021/03/24 12:24:01;;;;;;;12.60;7.30;;;10.20;98.90;;;;;;5023031;28;20181;-77
2021/03/24 12:26:34;;;;;;;12.52;7.50;;;10.20;99.90;;;;;;5017988;28;20558;-77
2021/03/24 12:29:33;;;;;;;11.32;6.53;;;10.20;98.20;;;;;;5017918;28;20085;-77
2021/03/24 12:32:02;;;;;;;11.68;6.68;;;10.20;98.40;;;;;;5010104;28;20094;-77
2021/03/24 12:34:35;;;;;;;12.45;7.28;;;10.10;98.90;;;;;;5028736;28;20109;-77
2021/03/24 12:37:03;;;;;;;11.57;6.90;;;10.40;97.10;;;;;;5023251;28;20090;-77
2021/03/24 12:39:40;;;;;;;11.48;6.82;;;10.40;97.60;;;;;;5014339;28;20077;-78
2021/03/24 12:42:33;;;;;;;14.70;6.93;;;10.40;98.30;;;;;;5013601;28;20136;-77
2021/03/24 12:45:00;;;;;;;11.68;7.10;;;10.50;96.80;;;;;;5024729;28;20085;-77
2021/03/24 12:47:38;;;;;;;10.25;6.72;;;10.40;94.40;;;;;;5015236;28;20128;-78
2021/03/24 12:50:11;;;;;;;9.02;5.43;;;10.40;96.90;;;;;;5025563;28;20486;-77
2021/03/24 12:52:43;;;;;;;21.33;9.27;;;10.60;95.00;;;;;;5020481;28;20066;-78
2021/03/24 12:55:12;;;;;;;12.68;7.15;;;10.40;96.50;;;;;;5027984;28;20074;-78
2021/03/24 12:57:53;;;;;;;10.75;7.20;;;10.50;97.30;;;;;;5025105;28;20102;-80
2021/03/24 13:00:36;;;;;;;14.90;7.40;;;10.70;98.50;;;;;;5022140;28;20066;-79
2021/03/24 13:03:38;;;;;;;10.35;5.93;;;10.70;95.90;;;;;;5026036;28;20157;-80
2021/03/24 13:06:28;;;;;;;13.93;6.05;;;10.40;95.40;;;;;;5016910;28;20153;-80
2021/03/24 13:09:12;;;;;;;14.40;6.97;;;10.70;95.00;;;;;;5029980;28;20086;-78
2021/03/24 13:12:19;;;;;;;12.23;6.37;;;10.90;95.80;;;;;;5014596;28;20124;-77
2021/03/24 13:14:58;;;;;;;10.25;6.07;;;10.90;95.80;;;;;;5001240;28;20336;-79
2021/03/24 13:17:44;;;;;;;12.52;6.68;;;10.60;95.00;;;;;;5021893;28;20094;-77
2021/03/24 13:20:40;;;;;;;12.23;6.03;;;11.00;96.90;;;;;;4992781;28;20086;-78
2021/03/24 13:23:11;;;;;;;9.50;5.72;;;10.90;94.80;;;;;;5022553;28;20443;-79
2021/03/24 13:25:53;;;;;;;12.80;6.80;;;10.80;95.60;;;;;;5016269;28;20078;-78
2021/03/24 13:29:03;;;;;;;9.27;5.88;;;11.00;93.60;;;;;;5019926;28;20106;-78
2021/03/24 13:31:56;;;;;;;13.73;6.68;;;11.00;94.80;;;;;;4951891;29;20090;-78
2021/03/24 13:34:37;;;;;;;21.48;7.22;;;11.30;95.10;;;;;;4944866;29;20127;-78
2021/03/24 13:37:04;;;;;;;12.93;6.90;;;11.20;95.00;;;;;;4994845;28;20109;-78
2021/03/24 13:40:04;;;;;;;11.40;5.50;;;11.20;92.50;;;;;;5015450;28;20074;-77
2021/03/24 13:42:38;;;;;;;10.40;6.22;;;11.10;94.00;;;;;;4999715;28;20104;-76